sensor_id;sensor_type;location;lat;lon;timestamp;temperature;humidity
26743;DHT22;14341;51.256;22.478;2023-04-15T00:02:14;8.90;99.90
26743;DHT22;14341;51.256;22.478;2023-04-15T00:05:19;8.90;99.90
26743;DHT22;14341;51.256;22.478;2023-04-15T00:08:22;8.80;99.90
26743;DHT22;14341;51.256;22.478;2023-04-15T00:11:25;8.80;99.90
26743;DHT22;14341;51.256;22.478;2023-04-15T00:14:28;8.80;99.90
26743;DHT22;14341;51.256;22.478;2023-04-15T00:17:33;8.80;99.90
26743;DHT22;14341;51.256;22.478;2023-04-15T00:20:37;8.70;99.90
26743;DHT22;14341;51.256;22.478;2023-04-15T00:23:40;8.70;99.90
26743;DHT22;14341;51.256;22.478;2023-04-15T00:26:43;8.70;99.90
26743;DHT22;14341;51.256;22.478;2023-04-15T00:29:46;8.70;99.90
26743;DHT22;14341;51.256;22.478;2023-04-15T00:32:51;8.70;99.90
26743;DHT22;14341;51.256;22.478;2023-04-15T00:35:56;8.70;99.90
26743;DHT22;14341;51.256;22.478;2023-04-15T00:38:59;8.70;99.90
26743;DHT22;14341;51.256;22.478;2023-04-15T00:42:04;8.70;99.90
26743;DHT22;14341;51.256;22.478;2023-04-15T00:45:08;8.70;99.90
26743;DHT22;14341;51.256;22.478;2023-04-15T00:48:13;8.70;99.90
26743;DHT22;14341;51.256;22.478;2023-04-15T00:51:16;8.60;99.90
26743;DHT22;14341;51.256;22.478;2023-04-15T00:54:20;8.60;99.90
26743;DHT22;14341;51.256;22.478;2023-04-15T00:57:23;8.60;99.90
26743;DHT22;14341;51.256;22.478;2023-04-15T01:00:26;8.60;99.90
26743;DHT22;14341;51.256;22.478;2023-04-15T01:03:31;8.60;99.90
26743;DHT22;14341;51.256;22.478;2023-04-15T01:06:34;8.60;99.90
26743;DHT22;14341;51.256;22.478;2023-04-15T01:09:38;8.60;99.90
26743;DHT22;14341;51.256;22.478;2023-04-15T01:12:41;8.50;99.90
26743;DHT22;14341;51.256;22.478;2023-04-15T01:15:45;8.60;99.90
26743;DHT22;14341;51.256;22.478;2023-04-15T01:18:50;8.50;99.90
26743;DHT22;14341;51.256;22.478;2023-04-15T01:21:54;8.60;99.90
26743;DHT22;14341;51.256;22.478;2023-04-15T01:25:05;8.50;99.90
26743;DHT22;14341;51.256;22.478;2023-04-15T01:28:13;8.60;99.90
26743;DHT22;14341;51.256;22.478;2023-04-15T01:31:16;8.60;99.90
26743;DHT22;14341;51.256;22.478;2023-04-15T01:34:19;8.50;99.90
26743;DHT22;14341;51.256;22.478;2023-04-15T01:37:23;8.50;99.90
26743;DHT22;14341;51.256;22.478;2023-04-15T01:40:26;8.50;99.90
26743;DHT22;14341;51.256;22.478;2023-04-15T01:43:33;8.50;99.90
26743;DHT22;14341;51.256;22.478;2023-04-15T01:46:37;8.50;99.90
26743;DHT22;14341;51.256;22.478;2023-04-15T01:49:40;8.50;99.90
26743;DHT22;14341;51.256;22.478;2023-04-15T01:52:43;8.50;99.90
26743;DHT22;14341;51.256;22.478;2023-04-15T01:55:47;8.60;99.90
26743;DHT22;14341;51.256;22.478;2023-04-15T01:58:52;8.50;99.90
26743;DHT22;14341;51.256;22.478;2023-04-15T02:01:55;8.50;99.90
26743;DHT22;14341;51.256;22.478;2023-04-15T02:05:01;8.50;99.90
26743;DHT22;14341;51.256;22.478;2023-04-15T02:08:05;8.50;99.90
26743;DHT22;14341;51.256;22.478;2023-04-15T02:11:11;8.60;99.90
26743;DHT22;14341;51.256;22.478;2023-04-15T02:14:19;8.50;99.90
26743;DHT22;14341;51.256;22.478;2023-04-15T02:17:23;8.50;99.90
26743;DHT22;14341;51.256;22.478;2023-04-15T02:20:27;8.50;99.90
26743;DHT22;14341;51.256;22.478;2023-04-15T02:23:32;8.50;99.90
26743;DHT22;14341;51.256;22.478;2023-04-15T02:26:36;8.50;99.90
26743;DHT22;14341;51.256;22.478;2023-04-15T02:29:42;8.50;99.90
26743;DHT22;14341;51.256;22.478;2023-04-15T02:32:45;8.50;99.90
26743;DHT22;14341;51.256;22.478;2023-04-15T02:35:49;8.50;99.90
26743;DHT22;14341;51.256;22.478;2023-04-15T02:38:52;8.50;99.90
26743;DHT22;14341;51.256;22.478;2023-04-15T02:41:56;8.50;99.90
26743;DHT22;14341;51.256;22.478;2023-04-15T02:45:02;8.50;99.90
26743;DHT22;14341;51.256;22.478;2023-04-15T02:48:08;8.50;99.90
26743;DHT22;14341;51.256;22.478;2023-04-15T02:51:16;8.50;99.90
26743;DHT22;14341;51.256;22.478;2023-04-15T02:54:21;8.50;99.90
26743;DHT22;14341;51.256;22.478;2023-04-15T02:57:25;8.50;99.90
26743;DHT22;14341;51.256;22.478;2023-04-15T03:00:32;8.50;99.90
26743;DHT22;14341;51.256;22.478;2023-04-15T03:03:36;8.60;99.90
26743;DHT22;14341;51.256;22.478;2023-04-15T03:06:39;8.50;99.90
26743;DHT22;14341;51.256;22.478;2023-04-15T03:09:44;8.50;99.90
26743;DHT22;14341;51.256;22.478;2023-04-15T03:12:48;8.50;99.90
26743;DHT22;14341;51.256;22.478;2023-04-15T03:15:58;8.60;99.90
26743;DHT22;14341;51.256;22.478;2023-04-15T03:19:04;8.50;99.90
26743;DHT22;14341;51.256;22.478;2023-04-15T03:22:08;8.50;99.90
26743;DHT22;14341;51.256;22.478;2023-04-15T03:25:13;8.50;99.90
26743;DHT22;14341;51.256;22.478;2023-04-15T03:28:17;8.50;99.90
26743;DHT22;14341;51.256;22.478;2023-04-15T03:31:23;8.50;99.90
26743;DHT22;14341;51.256;22.478;2023-04-15T03:34:27;8.50;99.90
26743;DHT22;14341;51.256;22.478;2023-04-15T03:37:31;8.50;99.90
26743;DHT22;14341;51.256;22.478;2023-04-15T03:40:35;8.50;99.90
26743;DHT22;14341;51.256;22.478;2023-04-15T03:43:38;8.50;99.90
26743;DHT22;14341;51.256;22.478;2023-04-15T03:46:44;8.60;99.90
26743;DHT22;14341;51.256;22.478;2023-04-15T03:49:48;8.50;99.90
26743;DHT22;14341;51.256;22.478;2023-04-15T03:52:51;8.50;99.90
26743;DHT22;14341;51.256;22.478;2023-04-15T03:55:58;8.50;99.90
26743;DHT22;14341;51.256;22.478;2023-04-15T03:59:09;8.50;99.90
26743;DHT22;14341;51.256;22.478;2023-04-15T04:02:14;8.60;99.90
26743;DHT22;14341;51.256;22.478;2023-04-15T04:05:17;8.60;99.90
26743;DHT22;14341;51.256;22.478;2023-04-15T04:08:21;8.60;99.90
26743;DHT22;14341;51.256;22.478;2023-04-15T04:11:24;8.60;99.90
26743;DHT22;14341;51.256;22.478;2023-04-15T04:14:29;8.60;99.90
26743;DHT22;14341;51.256;22.478;2023-04-15T04:17:33;8.60;99.90
26743;DHT22;14341;51.256;22.478;2023-04-15T04:20:38;8.60;99.90
26743;DHT22;14341;51.256;22.478;2023-04-15T04:23:41;8.60;99.90
26743;DHT22;14341;51.256;22.478;2023-04-15T04:26:45;8.60;99.90
26743;DHT22;14341;51.256;22.478;2023-04-15T04:29:48;8.60;99.90
26743;DHT22;14341;51.256;22.478;2023-04-15T04:32:53;8.60;99.90
26743;DHT22;14341;51.256;22.478;2023-04-15T04:35:56;8.70;99.90
26743;DHT22;14341;51.256;22.478;2023-04-15T04:39:00;8.70;99.90
26743;DHT22;14341;51.256;22.478;2023-04-15T04:42:04;8.60;99.90
26743;DHT22;14341;51.256;22.478;2023-04-15T04:45:08;8.60;99.90
26743;DHT22;14341;51.256;22.478;2023-04-15T04:48:14;8.60;99.90
26743;DHT22;14341;51.256;22.478;2023-04-15T04:51:24;8.70;99.90
26743;DHT22;14341;51.256;22.478;2023-04-15T04:54:28;8.70;99.90
26743;DHT22;14341;51.256;22.478;2023-04-15T04:57:32;8.70;99.90
26743;DHT22;14341;51.256;22.478;2023-04-15T05:00:37;8.70;99.90
26743;DHT22;14341;51.256;22.478;2023-04-15T05:03:41;8.70;99.90
26743;DHT22;14341;51.256;22.478;2023-04-15T05:06:45;8.70;99.90
26743;DHT22;14341;51.256;22.478;2023-04-15T05:09:48;8.70;99.90
26743;DHT22;14341;51.256;22.478;2023-04-15T05:12:52;8.70;99.90
26743;DHT22;14341;51.256;22.478;2023-04-15T05:15:55;8.70;99.90
26743;DHT22;14341;51.256;22.478;2023-04-15T05:19:00;8.70;99.90
26743;DHT22;14341;51.256;22.478;2023-04-15T05:22:04;8.70;99.90
26743;DHT22;14341;51.256;22.478;2023-04-15T05:25:08;8.70;99.90
26743;DHT22;14341;51.256;22.478;2023-04-15T05:28:11;8.70;99.90
26743;DHT22;14341;51.256;22.478;2023-04-15T05:31:15;8.70;99.90
26743;DHT22;14341;51.256;22.478;2023-04-15T05:34:20;8.70;99.90
26743;DHT22;14341;51.256;22.478;2023-04-15T05:37:23;8.80;99.90
26743;DHT22;14341;51.256;22.478;2023-04-15T05:40:27;8.80;99.90
26743;DHT22;14341;51.256;22.478;2023-04-15T05:43:30;8.80;99.90
26743;DHT22;14341;51.256;22.478;2023-04-15T05:46:33;8.80;99.90
26743;DHT22;14341;51.256;22.478;2023-04-15T05:49:42;8.80;99.90
26743;DHT22;14341;51.256;22.478;2023-04-15T05:52:45;8.70;99.90
26743;DHT22;14341;51.256;22.478;2023-04-15T05:55:49;8.70;99.90
26743;DHT22;14341;51.256;22.478;2023-04-15T05:58:53;8.90;99.90
26743;DHT22;14341;51.256;22.478;2023-04-15T06:01:56;8.90;99.90
26743;DHT22;14341;51.256;22.478;2023-04-15T06:05:00;9.30;99.90
26743;DHT22;14341;51.256;22.478;2023-04-15T06:08:05;8.90;99.90
26743;DHT22;14341;51.256;22.478;2023-04-15T06:11:09;8.90;99.90
26743;DHT22;14341;51.256;22.478;2023-04-15T06:14:12;9.00;99.90
26743;DHT22;14341;51.256;22.478;2023-04-15T06:17:15;8.90;99.90
26743;DHT22;14341;51.256;22.478;2023-04-15T06:20:21;9.00;99.90
26743;DHT22;14341;51.256;22.478;2023-04-15T06:23:24;9.10;99.90
26743;DHT22;14341;51.256;22.478;2023-04-15T06:26:29;9.10;99.90
26743;DHT22;14341;51.256;22.478;2023-04-15T06:29:32;9.10;99.90
26743;DHT22;14341;51.256;22.478;2023-04-15T06:32:35;9.00;99.90
26743;DHT22;14341;51.256;22.478;2023-04-15T06:35:40;9.00;99.90
26743;DHT22;14341;51.256;22.478;2023-04-15T06:38:44;9.10;99.90
26743;DHT22;14341;51.256;22.478;2023-04-15T06:41:47;9.10;99.90
26743;DHT22;14341;51.256;22.478;2023-04-15T06:44:53;9.10;99.90
26743;DHT22;14341;51.256;22.478;2023-04-15T06:47:56;9.20;99.90
26743;DHT22;14341;51.256;22.478;2023-04-15T06:51:01;9.40;99.90
26743;DHT22;14341;51.256;22.478;2023-04-15T06:54:05;9.50;99.90
26743;DHT22;14341;51.256;22.478;2023-04-15T06:57:08;9.70;99.90
26743;DHT22;14341;51.256;22.478;2023-04-15T07:00:12;9.60;99.90
26743;DHT22;14341;51.256;22.478;2023-04-15T07:03:16;9.60;99.90
26743;DHT22;14341;51.256;22.478;2023-04-15T07:06:21;9.60;99.90
26743;DHT22;14341;51.256;22.478;2023-04-15T07:09:25;9.70;99.90
26743;DHT22;14341;51.256;22.478;2023-04-15T07:12:28;9.70;99.90
26743;DHT22;14341;51.256;22.478;2023-04-15T07:15:32;9.90;99.90
26743;DHT22;14341;51.256;22.478;2023-04-15T07:18:35;9.80;99.90
26743;DHT22;14341;51.256;22.478;2023-04-15T07:21:40;9.90;99.90
26743;DHT22;14341;51.256;22.478;2023-04-15T07:24:44;9.90;99.90
26743;DHT22;14341;51.256;22.478;2023-04-15T07:27:47;9.90;99.90
26743;DHT22;14341;51.256;22.478;2023-04-15T07:30:51;10.00;99.90
26743;DHT22;14341;51.256;22.478;2023-04-15T07:33:54;9.90;99.90
26743;DHT22;14341;51.256;22.478;2023-04-15T07:36:59;9.90;99.90
26743;DHT22;14341;51.256;22.478;2023-04-15T07:40:03;9.90;99.90
26743;DHT22;14341;51.256;22.478;2023-04-15T07:43:08;9.90;99.90
26743;DHT22;14341;51.256;22.478;2023-04-15T07:46:11;10.00;99.90
26743;DHT22;14341;51.256;22.478;2023-04-15T07:49:14;10.10;99.90
26743;DHT22;14341;51.256;22.478;2023-04-15T07:52:21;10.10;99.90
26743;DHT22;14341;51.256;22.478;2023-04-15T07:55:26;10.10;99.90
26743;DHT22;14341;51.256;22.478;2023-04-15T07:58:31;10.20;99.90
26743;DHT22;14341;51.256;22.478;2023-04-15T08:01:35;10.10;99.90
26743;DHT22;14341;51.256;22.478;2023-04-15T08:04:38;10.10;99.90
26743;DHT22;14341;51.256;22.478;2023-04-15T08:07:43;10.00;99.90
26743;DHT22;14341;51.256;22.478;2023-04-15T08:10:47;10.00;99.90
26743;DHT22;14341;51.256;22.478;2023-04-15T08:13:55;10.00;99.90
26743;DHT22;14341;51.256;22.478;2023-04-15T08:16:59;10.00;99.90
26743;DHT22;14341;51.256;22.478;2023-04-15T08:20:03;10.20;99.90
26743;DHT22;14341;51.256;22.478;2023-04-15T08:23:09;10.30;99.90
26743;DHT22;14341;51.256;22.478;2023-04-15T08:26:12;10.40;99.90
26743;DHT22;14341;51.256;22.478;2023-04-15T08:29:15;10.60;99.90
26743;DHT22;14341;51.256;22.478;2023-04-15T08:32:19;10.80;99.90
26743;DHT22;14341;51.256;22.478;2023-04-15T08:35:22;10.80;99.90
26743;DHT22;14341;51.256;22.478;2023-04-15T08:38:26;10.90;99.90
26743;DHT22;14341;51.256;22.478;2023-04-15T08:41:36;10.50;99.90
26743;DHT22;14341;51.256;22.478;2023-04-15T08:44:42;10.60;99.90
26743;DHT22;14341;51.256;22.478;2023-04-15T08:47:47;10.60;99.90
26743;DHT22;14341;51.256;22.478;2023-04-15T08:50:52;10.80;99.90
26743;DHT22;14341;51.256;22.478;2023-04-15T08:53:57;10.90;99.90
26743;DHT22;14341;51.256;22.478;2023-04-15T08:57:01;10.80;99.90
26743;DHT22;14341;51.256;22.478;2023-04-15T09:00:06;10.90;99.90
26743;DHT22;14341;51.256;22.478;2023-04-15T09:03:10;10.80;99.90
26743;DHT22;14341;51.256;22.478;2023-04-15T09:06:15;10.80;99.90
26743;DHT22;14341;51.256;22.478;2023-04-15T09:09:20;10.90;99.90
26743;DHT22;14341;51.256;22.478;2023-04-15T09:12:24;10.90;99.90
26743;DHT22;14341;51.256;22.478;2023-04-15T09:15:27;10.90;99.90
26743;DHT22;14341;51.256;22.478;2023-04-15T09:18:33;10.70;99.90
26743;DHT22;14341;51.256;22.478;2023-04-15T09:21:36;10.90;99.90
26743;DHT22;14341;51.256;22.478;2023-04-15T09:24:41;10.80;99.90
26743;DHT22;14341;51.256;22.478;2023-04-15T09:27:47;10.80;99.90
26743;DHT22;14341;51.256;22.478;2023-04-15T09:30:54;10.90;99.90
26743;DHT22;14341;51.256;22.478;2023-04-15T09:33:58;11.20;99.90
26743;DHT22;14341;51.256;22.478;2023-04-15T09:37:02;11.10;99.90
26743;DHT22;14341;51.256;22.478;2023-04-15T09:40:11;11.20;99.90
26743;DHT22;14341;51.256;22.478;2023-04-15T09:43:15;11.30;99.90
26743;DHT22;14341;51.256;22.478;2023-04-15T09:46:19;11.20;99.90
26743;DHT22;14341;51.256;22.478;2023-04-15T09:49:22;11.10;99.90
26743;DHT22;14341;51.256;22.478;2023-04-15T09:52:26;11.00;99.90
26743;DHT22;14341;51.256;22.478;2023-04-15T09:55:32;11.10;99.90
26743;DHT22;14341;51.256;22.478;2023-04-15T09:58:35;11.10;99.90
26743;DHT22;14341;51.256;22.478;2023-04-15T10:01:40;10.90;99.90
26743;DHT22;14341;51.256;22.478;2023-04-15T10:04:44;10.60;99.90
26743;DHT22;14341;51.256;22.478;2023-04-15T10:07:50;10.70;99.90
26743;DHT22;14341;51.256;22.478;2023-04-15T10:10:55;11.20;99.90
26743;DHT22;14341;51.256;22.478;2023-04-15T10:13:59;11.60;99.90
26743;DHT22;14341;51.256;22.478;2023-04-15T10:17:04;11.70;99.90
26743;DHT22;14341;51.256;22.478;2023-04-15T10:20:09;11.90;99.90
26743;DHT22;14341;51.256;22.478;2023-04-15T10:23:14;12.40;99.90
26743;DHT22;14341;51.256;22.478;2023-04-15T10:26:19;12.90;99.90
26743;DHT22;14341;51.256;22.478;2023-04-15T10:29:24;13.30;99.90
26743;DHT22;14341;51.256;22.478;2023-04-15T10:32:28;14.00;99.90
26743;DHT22;14341;51.256;22.478;2023-04-15T10:35:32;13.70;99.90
26743;DHT22;14341;51.256;22.478;2023-04-15T10:38:38;13.70;99.90
26743;DHT22;14341;51.256;22.478;2023-04-15T10:41:43;13.40;99.90
26743;DHT22;14341;51.256;22.478;2023-04-15T10:44:48;13.80;99.90
26743;DHT22;14341;51.256;22.478;2023-04-15T10:47:56;14.40;99.90
26743;DHT22;14341;51.256;22.478;2023-04-15T10:51:00;14.40;99.90
26743;DHT22;14341;51.256;22.478;2023-04-15T10:54:08;13.90;99.90
26743;DHT22;14341;51.256;22.478;2023-04-15T10:57:21;14.50;99.90
26743;DHT22;14341;51.256;22.478;2023-04-15T11:00:26;14.10;99.90
26743;DHT22;14341;51.256;22.478;2023-04-15T11:03:36;13.30;99.90
26743;DHT22;14341;51.256;22.478;2023-04-15T11:06:43;13.30;99.90
26743;DHT22;14341;51.256;22.478;2023-04-15T11:09:47;13.70;99.90
26743;DHT22;14341;51.256;22.478;2023-04-15T11:12:53;14.20;99.90
26743;DHT22;14341;51.256;22.478;2023-04-15T11:16:00;14.30;99.90
26743;DHT22;14341;51.256;22.478;2023-04-15T11:19:04;14.60;99.90
26743;DHT22;14341;51.256;22.478;2023-04-15T11:22:08;15.40;99.90
26743;DHT22;14341;51.256;22.478;2023-04-15T11:25:21;14.90;99.90
26743;DHT22;14341;51.256;22.478;2023-04-15T11:28:27;14.80;99.90
26743;DHT22;14341;51.256;22.478;2023-04-15T11:31:31;14.40;99.90
26743;DHT22;14341;51.256;22.478;2023-04-15T11:34:34;14.50;99.90
26743;DHT22;14341;51.256;22.478;2023-04-15T11:37:37;14.20;99.90
26743;DHT22;14341;51.256;22.478;2023-04-15T11:40:42;14.10;99.90
26743;DHT22;14341;51.256;22.478;2023-04-15T11:43:50;13.70;99.90
26743;DHT22;14341;51.256;22.478;2023-04-15T11:46:54;13.50;99.90
26743;DHT22;14341;51.256;22.478;2023-04-15T11:50:13;13.70;99.90
26743;DHT22;14341;51.256;22.478;2023-04-15T11:53:17;14.40;99.90
26743;DHT22;14341;51.256;22.478;2023-04-15T11:56:21;14.40;99.90
26743;DHT22;14341;51.256;22.478;2023-04-15T11:59:40;14.80;99.90
26743;DHT22;14341;51.256;22.478;2023-04-15T12:02:47;14.70;99.90
26743;DHT22;14341;51.256;22.478;2023-04-15T12:06:15;14.50;99.90
26743;DHT22;14341;51.256;22.478;2023-04-15T12:09:20;14.40;99.90
26743;DHT22;14341;51.256;22.478;2023-04-15T12:12:26;14.40;99.90
26743;DHT22;14341;51.256;22.478;2023-04-15T12:15:31;14.40;99.90
26743;DHT22;14341;51.256;22.478;2023-04-15T12:18:36;14.30;99.90
26743;DHT22;14341;51.256;22.478;2023-04-15T12:21:42;14.00;99.90
26743;DHT22;14341;51.256;22.478;2023-04-15T12:24:46;14.20;99.90
26743;DHT22;14341;51.256;22.478;2023-04-15T12:27:51;14.50;99.90
26743;DHT22;14341;51.256;22.478;2023-04-15T12:30:57;14.70;99.90
26743;DHT22;14341;51.256;22.478;2023-04-15T12:34:00;14.30;99.90
26743;DHT22;14341;51.256;22.478;2023-04-15T12:37:06;14.70;99.90
26743;DHT22;14341;51.256;22.478;2023-04-15T12:40:10;15.30;99.90
26743;DHT22;14341;51.256;22.478;2023-04-15T12:43:14;15.50;99.90
26743;DHT22;14341;51.256;22.478;2023-04-15T12:46:18;16.60;98.20
26743;DHT22;14341;51.256;22.478;2023-04-15T12:49:23;17.30;92.40
26743;DHT22;14341;51.256;22.478;2023-04-15T12:52:26;16.80;1.00
26743;DHT22;14341;51.256;22.478;2023-04-15T12:55:30;16.50;8.20
26743;DHT22;14341;51.256;22.478;2023-04-15T12:58:33;15.40;95.50
26743;DHT22;14341;51.256;22.478;2023-04-15T13:01:38;15.60;99.90
26743;DHT22;14341;51.256;22.478;2023-04-15T13:04:42;15.70;99.80
26743;DHT22;14341;51.256;22.478;2023-04-15T13:07:46;17.20;52.10
26743;DHT22;14341;51.256;22.478;2023-04-15T13:10:56;18.70;1.00
26743;DHT22;14341;51.256;22.478;2023-04-15T13:14:00;18.70;1.00
26743;DHT22;14341;51.256;22.478;2023-04-15T13:17:06;18.40;1.00
26743;DHT22;14341;51.256;22.478;2023-04-15T13:20:11;18.60;1.00
26743;DHT22;14341;51.256;22.478;2023-04-15T13:23:19;18.60;1.00
26743;DHT22;14341;51.256;22.478;2023-04-15T13:26:23;17.90;99.90
26743;DHT22;14341;51.256;22.478;2023-04-15T13:29:27;18.00;1.00
26743;DHT22;14341;51.256;22.478;2023-04-15T13:32:32;17.10;1.00
26743;DHT22;14341;51.256;22.478;2023-04-15T13:35:35;16.00;1.00
26743;DHT22;14341;51.256;22.478;2023-04-15T13:38:39;15.60;1.00
26743;DHT22;14341;51.256;22.478;2023-04-15T13:41:42;14.80;48.00
26743;DHT22;14341;51.256;22.478;2023-04-15T13:44:45;14.90;97.90
26743;DHT22;14341;51.256;22.478;2023-04-15T13:47:50;14.60;98.30
26743;DHT22;14341;51.256;22.478;2023-04-15T13:50:53;15.00;95.90
26743;DHT22;14341;51.256;22.478;2023-04-15T13:53:57;14.90;92.00
26743;DHT22;14341;51.256;22.478;2023-04-15T13:57:00;15.30;84.50
26743;DHT22;14341;51.256;22.478;2023-04-15T14:00:04;15.40;68.00
26743;DHT22;14341;51.256;22.478;2023-04-15T14:03:09;15.10;39.70
26743;DHT22;14341;51.256;22.478;2023-04-15T14:06:14;14.60;95.90
26743;DHT22;14341;51.256;22.478;2023-04-15T14:09:17;14.20;99.90
26743;DHT22;14341;51.256;22.478;2023-04-15T14:12:26;14.20;99.90
26743;DHT22;14341;51.256;22.478;2023-04-15T14:15:30;14.30;99.90
26743;DHT22;14341;51.256;22.478;2023-04-15T14:18:35;14.20;99.90
26743;DHT22;14341;51.256;22.478;2023-04-15T14:21:39;14.00;99.90
26743;DHT22;14341;51.256;22.478;2023-04-15T14:24:42;13.90;99.90
26743;DHT22;14341;51.256;22.478;2023-04-15T14:27:46;14.70;99.90
26743;DHT22;14341;51.256;22.478;2023-04-15T14:30:49;15.10;95.30
26743;DHT22;14341;51.256;22.478;2023-04-15T14:33:54;14.50;96.30
26743;DHT22;14341;51.256;22.478;2023-04-15T14:36:57;15.00;96.40
26743;DHT22;14341;51.256;22.478;2023-04-15T14:40:00;15.30;92.40
26743;DHT22;14341;51.256;22.478;2023-04-15T14:43:04;16.00;71.80
26743;DHT22;14341;51.256;22.478;2023-04-15T14:46:07;15.90;70.70
26743;DHT22;14341;51.256;22.478;2023-04-15T14:49:12;15.70;59.50
26743;DHT22;14341;51.256;22.478;2023-04-15T14:52:16;16.50;20.50
26743;DHT22;14341;51.256;22.478;2023-04-15T14:55:19;15.60;38.40
26743;DHT22;14341;51.256;22.478;2023-04-15T14:58:22;15.90;44.60
26743;DHT22;14341;51.256;22.478;2023-04-15T15:01:25;16.00;11.30
26743;DHT22;14341;51.256;22.478;2023-04-15T15:04:33;15.40;46.30
26743;DHT22;14341;51.256;22.478;2023-04-15T15:07:37;15.00;92.60
26743;DHT22;14341;51.256;22.478;2023-04-15T15:10:41;14.10;99.90
26743;DHT22;14341;51.256;22.478;2023-04-15T15:13:50;13.90;99.90
26743;DHT22;14341;51.256;22.478;2023-04-15T15:16:57;13.60;99.90
26743;DHT22;14341;51.256;22.478;2023-04-15T15:20:02;13.50;99.90
26743;DHT22;14341;51.256;22.478;2023-04-15T15:23:10;13.30;99.90
26743;DHT22;14341;51.256;22.478;2023-04-15T15:26:13;13.10;99.90
26743;DHT22;14341;51.256;22.478;2023-04-15T15:29:17;12.60;99.90
26743;DHT22;14341;51.256;22.478;2023-04-15T15:32:20;12.80;99.90
26743;DHT22;14341;51.256;22.478;2023-04-15T15:35:28;13.10;99.90
26743;DHT22;14341;51.256;22.478;2023-04-15T15:38:31;12.90;99.90
26743;DHT22;14341;51.256;22.478;2023-04-15T15:41:34;12.70;99.90
26743;DHT22;14341;51.256;22.478;2023-04-15T15:44:38;12.40;99.90
26743;DHT22;14341;51.256;22.478;2023-04-15T15:47:42;12.20;99.90
26743;DHT22;14341;51.256;22.478;2023-04-15T15:50:46;12.10;99.90
26743;DHT22;14341;51.256;22.478;2023-04-15T15:53:50;12.20;99.90
26743;DHT22;14341;51.256;22.478;2023-04-15T15:56:53;12.20;99.90
26743;DHT22;14341;51.256;22.478;2023-04-15T15:59:58;11.90;99.90
26743;DHT22;14341;51.256;22.478;2023-04-15T16:03:14;11.60;99.90
26743;DHT22;14341;51.256;22.478;2023-04-15T16:06:19;11.70;99.90
26743;DHT22;14341;51.256;22.478;2023-04-15T16:09:22;11.60;99.90
26743;DHT22;14341;51.256;22.478;2023-04-15T16:12:26;11.20;99.90
26743;DHT22;14341;51.256;22.478;2023-04-15T16:15:29;11.00;99.90
26743;DHT22;14341;51.256;22.478;2023-04-15T16:18:33;11.20;99.90
26743;DHT22;14341;51.256;22.478;2023-04-15T16:21:38;11.20;99.90
26743;DHT22;14341;51.256;22.478;2023-04-15T16:24:41;11.00;99.90
26743;DHT22;14341;51.256;22.478;2023-04-15T16:27:45;10.90;99.90
26743;DHT22;14341;51.256;22.478;2023-04-15T16:31:06;10.80;99.90
26743;DHT22;14341;51.256;22.478;2023-04-15T16:34:10;10.70;99.90
26743;DHT22;14341;51.256;22.478;2023-04-15T16:37:15;10.80;99.90
26743;DHT22;14341;51.256;22.478;2023-04-15T16:40:18;10.80;99.90
26743;DHT22;14341;51.256;22.478;2023-04-15T16:43:21;10.70;99.90
26743;DHT22;14341;51.256;22.478;2023-04-15T16:46:25;10.60;99.90
26743;DHT22;14341;51.256;22.478;2023-04-15T16:49:29;10.40;99.90
26743;DHT22;14341;51.256;22.478;2023-04-15T16:52:34;10.40;99.90
26743;DHT22;14341;51.256;22.478;2023-04-15T16:55:38;10.30;99.90
26743;DHT22;14341;51.256;22.478;2023-04-15T16:58:42;10.10;99.90
26743;DHT22;14341;51.256;22.478;2023-04-15T17:01:45;10.10;99.90
26743;DHT22;14341;51.256;22.478;2023-04-15T17:04:49;10.10;99.90
26743;DHT22;14341;51.256;22.478;2023-04-15T17:07:54;10.10;99.90
26743;DHT22;14341;51.256;22.478;2023-04-15T17:10:57;10.10;99.90
26743;DHT22;14341;51.256;22.478;2023-04-15T17:14:01;9.90;99.90
26743;DHT22;14341;51.256;22.478;2023-04-15T17:17:05;10.00;99.90
26743;DHT22;14341;51.256;22.478;2023-04-15T17:20:09;10.00;99.90
26743;DHT22;14341;51.256;22.478;2023-04-15T17:23:15;10.00;99.90
26743;DHT22;14341;51.256;22.478;2023-04-15T17:26:18;10.00;99.90
26743;DHT22;14341;51.256;22.478;2023-04-15T17:29:23;9.90;99.90
26743;DHT22;14341;51.256;22.478;2023-04-15T17:32:26;9.90;99.90
26743;DHT22;14341;51.256;22.478;2023-04-15T17:35:33;9.90;99.90
26743;DHT22;14341;51.256;22.478;2023-04-15T17:38:37;9.90;99.90
26743;DHT22;14341;51.256;22.478;2023-04-15T17:41:40;9.90;99.90
26743;DHT22;14341;51.256;22.478;2023-04-15T17:44:44;9.90;99.90
26743;DHT22;14341;51.256;22.478;2023-04-15T17:47:51;9.90;99.90
26743;DHT22;14341;51.256;22.478;2023-04-15T17:50:54;9.70;99.90
26743;DHT22;14341;51.256;22.478;2023-04-15T17:53:58;9.70;99.90
26743;DHT22;14341;51.256;22.478;2023-04-15T17:57:02;9.80;99.90
26743;DHT22;14341;51.256;22.478;2023-04-15T18:00:07;9.80;99.90
26743;DHT22;14341;51.256;22.478;2023-04-15T18:03:13;9.70;99.90
26743;DHT22;14341;51.256;22.478;2023-04-15T18:06:17;9.70;99.90
26743;DHT22;14341;51.256;22.478;2023-04-15T18:09:23;9.70;99.90
26743;DHT22;14341;51.256;22.478;2023-04-15T18:12:28;9.60;99.90
26743;DHT22;14341;51.256;22.478;2023-04-15T18:15:32;9.60;99.90
26743;DHT22;14341;51.256;22.478;2023-04-15T18:18:35;9.50;99.90
26743;DHT22;14341;51.256;22.478;2023-04-15T18:21:38;9.50;99.90
26743;DHT22;14341;51.256;22.478;2023-04-15T18:24:43;9.40;99.90
26743;DHT22;14341;51.256;22.478;2023-04-15T18:27:47;9.30;99.90
26743;DHT22;14341;51.256;22.478;2023-04-15T18:30:52;9.30;99.90
26743;DHT22;14341;51.256;22.478;2023-04-15T18:33:57;9.30;99.90
26743;DHT22;14341;51.256;22.478;2023-04-15T18:37:01;9.30;99.90
26743;DHT22;14341;51.256;22.478;2023-04-15T18:40:08;9.30;99.90
26743;DHT22;14341;51.256;22.478;2023-04-15T18:43:11;9.30;99.90
26743;DHT22;14341;51.256;22.478;2023-04-15T18:46:15;9.30;99.90
26743;DHT22;14341;51.256;22.478;2023-04-15T18:49:23;9.30;99.90
26743;DHT22;14341;51.256;22.478;2023-04-15T18:52:28;9.30;99.90
26743;DHT22;14341;51.256;22.478;2023-04-15T18:55:34;9.30;99.90
26743;DHT22;14341;51.256;22.478;2023-04-15T18:58:37;9.30;99.90
26743;DHT22;14341;51.256;22.478;2023-04-15T19:02:01;9.30;99.90
26743;DHT22;14341;51.256;22.478;2023-04-15T19:05:07;9.30;99.90
26743;DHT22;14341;51.256;22.478;2023-04-15T19:08:11;9.20;99.90
26743;DHT22;14341;51.256;22.478;2023-04-15T19:11:16;9.20;99.90
26743;DHT22;14341;51.256;22.478;2023-04-15T19:14:20;8.80;99.90
26743;DHT22;14341;51.256;22.478;2023-04-15T19:17:23;9.10;99.90
26743;DHT22;14341;51.256;22.478;2023-04-15T19:20:28;9.20;99.90